createdAt,value
2017-11-30T00:00:55.458Z,35.70
2017-11-30T00:03:22.949Z,34.87
2017-11-30T00:05:50.440Z,34.40
2017-11-30T00:08:17.968Z,37.20
2017-11-30T00:10:45.465Z,35.70
2017-11-30T00:13:12.962Z,35.50
2017-11-30T00:15:40.585Z,37.80
2017-11-30T00:18:08.081Z,40.10
2017-11-30T00:20:35.612Z,33.07
2017-11-30T00:23:03.110Z,34.87
2017-11-30T00:25:30.601Z,35.53
2017-11-30T00:27:58.153Z,36.10
2017-11-30T00:30:25.692Z,29.57
2017-11-30T00:32:53.196Z,33.60
2017-11-30T00:35:20.687Z,30.37
2017-11-30T00:37:48.223Z,32.40
2017-11-30T00:40:15.708Z,30.57
2017-11-30T00:42:55.121Z,35.63
2017-11-30T00:45:22.623Z,34.87
2017-11-30T00:47:50.128Z,31.63
2017-11-30T00:50:17.691Z,35.27
2017-11-30T00:52:45.257Z,37.10
2017-11-30T00:55:12.764Z,37.30
2017-11-30T00:57:40.290Z,32.80
2017-11-30T01:00:07.792Z,32.23
2017-11-30T01:02:35.313Z,33.47
2017-11-30T01:05:02.867Z,36.03
2017-11-30T01:07:30.361Z,32.80
2017-11-30T01:09:57.850Z,31.83
2017-11-30T01:12:25.408Z,36.93
2017-11-30T01:14:52.899Z,33.73
2017-11-30T01:17:20.388Z,41.20
2017-11-30T01:19:47.926Z,26.43
2017-11-30T01:22:15.419Z,30.17
2017-11-30T01:24:42.914Z,34.50
2017-11-30T01:27:10.452Z,27.67
2017-11-30T01:29:37.945Z,31.20
2017-11-30T01:32:05.432Z,32.20
2017-11-30T01:34:32.973Z,34.70
2017-11-30T01:37:00.460Z,33.47
2017-11-30T01:39:28.041Z,31.40
2017-11-30T01:41:55.561Z,35.37
2017-11-30T01:44:23.065Z,42.43
2017-11-30T01:46:50.602Z,39.00
2017-11-30T01:49:18.127Z,38.50
2017-11-30T01:51:45.625Z,44.70
2017-11-30T01:54:13.213Z,49.70
2017-11-30T01:56:40.774Z,36.17
2017-11-30T01:59:08.271Z,31.27
2017-11-30T02:01:35.984Z,34.30
2017-11-30T02:04:03.482Z,31.13
2017-11-30T02:06:30.973Z,40.73
2017-11-30T02:08:58.597Z,36.63
2017-11-30T02:11:26.228Z,29.20
2017-11-30T02:13:53.729Z,29.67
2017-11-30T02:16:21.267Z,34.80
2017-11-30T02:18:48.766Z,32.57
2017-11-30T02:21:16.252Z,39.77
2017-11-30T02:23:43.789Z,40.90
2017-11-30T02:26:11.288Z,37.00
2017-11-30T02:28:38.781Z,39.90
2017-11-30T02:31:06.321Z,32.93
2017-11-30T02:33:33.852Z,37.13
2017-11-30T02:36:01.338Z,34.67
2017-11-30T02:38:28.874Z,36.10
2017-11-30T02:40:56.374Z,47.43
2017-11-30T02:43:23.873Z,43.20
2017-11-30T02:45:52.455Z,41.67
2017-11-30T02:48:19.956Z,32.67
2017-11-30T02:50:47.452Z,34.47
2017-11-30T02:53:14.976Z,28.67
2017-11-30T02:55:42.482Z,35.47
2017-11-30T02:58:10.006Z,33.67
2017-11-30T03:00:37.607Z,33.67
2017-11-30T03:03:05.165Z,37.60
2017-11-30T03:05:32.663Z,33.00
2017-11-30T03:08:00.301Z,39.50
2017-11-30T03:10:27.807Z,38.10
2017-11-30T03:12:55.332Z,33.53
2017-11-30T03:15:22.881Z,38.70
2017-11-30T03:17:50.374Z,38.57
2017-11-30T03:20:17.979Z,36.40
2017-11-30T03:22:45.471Z,41.27
2017-11-30T03:25:12.956Z,37.73
2017-11-30T03:27:40.489Z,36.97
2017-11-30T03:30:08.115Z,38.10
2017-11-30T03:32:35.680Z,34.27
2017-11-30T03:35:03.231Z,39.60
2017-11-30T03:37:30.727Z,46.80
2017-11-30T03:39:58.218Z,40.70
2017-11-30T03:42:25.754Z,37.43
2017-11-30T03:44:53.252Z,40.10
2017-11-30T03:47:20.764Z,37.67
2017-11-30T03:49:48.296Z,36.47
2017-11-30T03:52:15.837Z,39.60
2017-11-30T03:54:43.330Z,36.07
2017-11-30T03:57:10.881Z,35.97
2017-11-30T03:59:38.417Z,36.27
2017-11-30T04:02:05.916Z,42.83
2017-11-30T04:04:33.448Z,37.73
2017-11-30T04:07:00.989Z,39.20
2017-11-30T04:09:28.485Z,37.37
2017-11-30T04:11:56.009Z,38.40
2017-11-30T04:14:23.565Z,48.67
2017-11-30T04:16:51.072Z,36.13
2017-11-30T04:19:18.597Z,40.20
2017-11-30T04:21:46.084Z,43.37
2017-11-30T04:24:13.574Z,41.63
2017-11-30T04:26:41.109Z,38.13
2017-11-30T04:29:08.604Z,42.90
2017-11-30T04:31:36.094Z,40.40
2017-11-30T04:34:03.616Z,48.40
2017-11-30T04:36:31.107Z,44.07
2017-11-30T04:38:58.609Z,42.47
2017-11-30T04:41:26.141Z,40.93
2017-11-30T04:43:53.641Z,42.20
2017-11-30T04:46:21.141Z,45.70
2017-11-30T04:48:48.765Z,37.43
2017-11-30T04:51:16.257Z,42.47
2017-11-30T04:53:43.750Z,43.77
2017-11-30T04:56:11.270Z,44.20
2017-11-30T04:58:38.753Z,38.33
2017-11-30T05:01:06.246Z,39.40
2017-11-30T05:03:33.834Z,42.67
2017-11-30T05:06:01.409Z,47.60
2017-11-30T05:08:28.899Z,38.87
2017-11-30T05:10:56.427Z,39.40
2017-11-30T05:13:23.965Z,41.73
2017-11-30T05:15:51.463Z,42.83
2017-11-30T05:18:18.994Z,45.80
2017-11-30T05:20:46.506Z,45.67
2017-11-30T05:23:13.994Z,46.93
2017-11-30T05:25:41.533Z,42.53
2017-11-30T05:28:09.088Z,45.77
2017-11-30T05:30:36.584Z,43.57
2017-11-30T05:33:04.109Z,45.13
2017-11-30T05:35:31.598Z,49.03
2017-11-30T05:37:59.109Z,38.93
2017-11-30T05:40:27.018Z,36.93
2017-11-30T05:42:54.554Z,44.30
2017-11-30T05:45:22.060Z,39.83
2017-11-30T05:47:49.553Z,38.47
2017-11-30T05:50:17.153Z,42.70
2017-11-30T05:52:44.650Z,40.17
2017-11-30T05:55:12.137Z,44.83
2017-11-30T05:57:39.826Z,46.00
2017-11-30T06:00:07.390Z,43.40
2017-11-30T06:02:34.884Z,45.30
2017-11-30T06:05:02.436Z,47.63
2017-11-30T06:07:29.937Z,39.97
2017-11-30T06:09:57.432Z,43.20
2017-11-30T06:12:25.051Z,38.23
2017-11-30T06:14:52.665Z,39.23
2017-11-30T06:17:20.166Z,41.33
2017-11-30T06:19:47.695Z,39.60
2017-11-30T06:22:15.187Z,42.60
2017-11-30T06:24:42.678Z,41.03
2017-11-30T06:27:10.204Z,42.23
2017-11-30T06:29:37.723Z,37.33
2017-11-30T06:32:05.221Z,43.17
2017-11-30T06:34:32.810Z,41.80
2017-11-30T06:37:00.305Z,42.27
2017-11-30T06:39:27.810Z,51.10
2017-11-30T06:41:55.372Z,42.37
2017-11-30T06:44:22.861Z,40.70
2017-11-30T06:46:50.356Z,42.00
2017-11-30T06:49:17.889Z,41.07
2017-11-30T06:51:45.380Z,44.80
2017-11-30T06:54:12.877Z,39.13
2017-11-30T06:56:40.399Z,41.93
2017-11-30T06:59:07.940Z,40.30
2017-11-30T07:01:35.452Z,36.13
2017-11-30T07:04:02.951Z,39.70
2017-11-30T07:06:30.483Z,40.80
2017-11-30T07:08:57.973Z,37.00
2017-11-30T07:11:25.514Z,40.87
2017-11-30T07:13:53.014Z,40.03
2017-11-30T07:16:20.506Z,62.83
2017-11-30T07:18:48.078Z,45.43
2017-11-30T07:21:15.575Z,48.07
2017-11-30T07:23:43.060Z,46.57
2017-11-30T07:26:10.587Z,48.77
2017-11-30T07:28:38.085Z,44.37
2017-11-30T07:31:05.589Z,42.37
2017-11-30T07:33:33.122Z,47.50
2017-11-30T07:36:00.617Z,40.23
2017-11-30T07:38:28.110Z,33.93
2017-11-30T07:40:55.678Z,34.07
2017-11-30T07:43:23.180Z,38.83
2017-11-30T07:45:50.681Z,37.87
2017-11-30T07:48:18.232Z,37.73
2017-11-30T07:50:45.725Z,37.20
2017-11-30T07:53:13.220Z,37.80
2017-11-30T07:55:40.739Z,37.10
2017-11-30T07:58:08.239Z,38.53
2017-11-30T08:00:35.743Z,38.17
2017-11-30T08:03:03.275Z,39.83
2017-11-30T08:05:30.783Z,37.63
2017-11-30T08:07:58.437Z,38.87
2017-11-30T08:10:25.928Z,41.30
2017-11-30T08:12:53.431Z,41.60
2017-11-30T08:15:20.948Z,34.70
2017-11-30T08:17:48.442Z,41.07
2017-11-30T08:20:15.969Z,36.53
2017-11-30T08:22:43.467Z,44.00
2017-11-30T08:25:10.971Z,37.73
2017-11-30T08:27:38.517Z,44.13
2017-11-30T08:30:06.010Z,41.27
2017-11-30T08:32:33.508Z,44.23
2017-11-30T08:35:01.040Z,42.43
2017-11-30T08:37:28.534Z,43.63
2017-11-30T08:39:56.032Z,38.00
2017-11-30T08:42:23.563Z,32.47
2017-11-30T08:44:51.055Z,41.40
2017-11-30T08:47:18.540Z,50.87
2017-11-30T08:49:46.081Z,39.60
2017-11-30T08:52:13.596Z,41.33
2017-11-30T08:54:41.093Z,46.07
2017-11-30T08:57:08.633Z,47.70
2017-11-30T08:59:36.123Z,42.10
2017-11-30T09:02:03.628Z,45.20
2017-11-30T09:04:31.152Z,43.23
2017-11-30T09:06:58.654Z,49.70
2017-11-30T09:09:26.153Z,56.10
2017-11-30T09:11:53.845Z,46.20
2017-11-30T09:14:21.354Z,50.33
2017-11-30T09:16:48.853Z,53.70
2017-11-30T09:19:16.387Z,51.60
2017-11-30T09:21:43.889Z,37.67
2017-11-30T09:24:11.445Z,55.17
2017-11-30T09:26:39.015Z,46.33
2017-11-30T09:29:06.501Z,45.90
2017-11-30T09:31:34.000Z,47.73
2017-11-30T09:34:01.579Z,59.37
2017-11-30T09:36:29.099Z,55.23
2017-11-30T09:38:56.596Z,60.40
2017-11-30T09:41:24.164Z,40.03
2017-11-30T09:43:51.661Z,45.13
2017-11-30T09:46:19.165Z,41.60
2017-11-30T09:48:46.689Z,44.97
2017-11-30T09:51:14.198Z,33.03
2017-11-30T09:53:41.700Z,47.93
2017-11-30T09:56:09.407Z,44.57
2017-11-30T09:58:36.961Z,35.67
2017-11-30T10:01:04.517Z,49.53
2017-11-30T10:03:32.043Z,35.70
2017-11-30T10:05:59.540Z,53.57
2017-11-30T10:08:27.042Z,47.27
2017-11-30T10:10:54.581Z,40.50
2017-11-30T10:13:22.070Z,46.73
2017-11-30T10:15:49.561Z,45.17
2017-11-30T10:18:17.109Z,40.23
2017-11-30T10:20:44.613Z,38.60
2017-11-30T10:23:12.145Z,41.73
2017-11-30T10:25:39.690Z,40.80
2017-11-30T10:28:07.202Z,39.70
2017-11-30T10:30:34.778Z,52.00
2017-11-30T10:33:02.260Z,57.40
2017-11-30T10:35:29.847Z,40.20
2017-11-30T10:37:57.347Z,43.43
2017-11-30T10:40:24.877Z,42.20
2017-11-30T10:42:52.384Z,38.73
2017-11-30T10:45:19.878Z,38.83
2017-11-30T10:47:47.429Z,45.63
2017-11-30T10:50:14.929Z,42.93
2017-11-30T10:52:42.418Z,39.17
2017-11-30T10:55:09.942Z,47.43
2017-11-30T10:57:37.430Z,36.23
2017-11-30T11:00:04.948Z,50.80
2017-11-30T11:02:32.482Z,44.83
2017-11-30T11:04:59.980Z,41.53
2017-11-30T11:07:27.475Z,42.13
2017-11-30T11:09:55.020Z,41.30
2017-11-30T11:12:22.539Z,37.90
2017-11-30T11:14:50.039Z,35.50
2017-11-30T11:17:17.596Z,44.07
2017-11-30T11:19:45.095Z,43.07
2017-11-30T11:22:12.602Z,38.53
2017-11-30T11:24:40.153Z,33.47
2017-11-30T11:27:07.637Z,34.97
2017-11-30T11:29:35.130Z,34.87
2017-11-30T11:32:02.685Z,36.03
2017-11-30T11:34:30.185Z,30.00
2017-11-30T11:36:57.682Z,28.93
2017-11-30T11:39:25.225Z,38.67
2017-11-30T11:41:52.746Z,40.10
2017-11-30T11:44:20.300Z,38.10
2017-11-30T11:46:47.818Z,35.50
2017-11-30T11:49:15.408Z,34.63
2017-11-30T11:51:42.919Z,32.20
2017-11-30T11:54:10.671Z,30.73
2017-11-30T11:56:38.280Z,40.63
2017-11-30T11:59:05.850Z,39.97
2017-11-30T12:01:33.342Z,33.30
2017-11-30T12:04:00.840Z,40.10
2017-11-30T12:06:28.374Z,37.63
2017-11-30T12:08:55.865Z,36.77
2017-11-30T12:11:23.376Z,34.80
2017-11-30T12:13:50.912Z,33.90
2017-11-30T12:16:18.413Z,34.47
2017-11-30T12:18:45.905Z,33.63
2017-11-30T12:21:13.428Z,31.13
2017-11-30T12:23:41.020Z,33.33
2017-11-30T12:26:08.522Z,29.67
2017-11-30T12:28:36.051Z,27.40
2017-11-30T12:31:03.548Z,30.87
2017-11-30T12:33:31.064Z,34.33
2017-11-30T12:35:59.320Z,35.47
2017-11-30T12:38:26.834Z,52.30
2017-11-30T12:40:54.357Z,33.33
2017-11-30T12:43:21.888Z,33.23
2017-11-30T12:45:49.376Z,29.70
2017-11-30T12:48:16.876Z,28.97
2017-11-30T12:50:44.406Z,33.10
2017-11-30T12:53:11.897Z,33.57
2017-11-30T12:55:39.404Z,39.93
2017-11-30T12:58:06.950Z,25.40
2017-11-30T13:00:34.445Z,32.87
2017-11-30T13:03:01.946Z,25.80
2017-11-30T13:05:29.459Z,30.80
2017-11-30T13:07:56.949Z,35.90
2017-11-30T13:10:24.439Z,34.50
2017-11-30T13:12:52.016Z,28.97
2017-11-30T13:15:19.505Z,28.77
2017-11-30T13:17:46.988Z,37.30
2017-11-30T13:20:14.511Z,31.07
2017-11-30T13:22:42.001Z,36.47
2017-11-30T13:25:09.590Z,38.03
2017-11-30T13:27:37.144Z,30.63
2017-11-30T13:30:04.640Z,42.33
2017-11-30T13:32:32.130Z,39.13
2017-11-30T13:34:59.644Z,34.50
2017-11-30T13:37:27.148Z,36.90
2017-11-30T13:39:54.669Z,34.87
2017-11-30T13:42:22.157Z,38.03
2017-11-30T13:44:49.665Z,42.30
2017-11-30T13:47:17.195Z,40.23
2017-11-30T13:49:44.680Z,50.00
2017-11-30T13:52:12.170Z,48.40
2017-11-30T13:54:39.705Z,62.17
2017-11-30T13:57:07.239Z,41.93
2017-11-30T13:59:34.733Z,45.03
2017-11-30T14:02:02.300Z,57.33
2017-11-30T14:04:29.786Z,50.07
2017-11-30T14:06:57.393Z,47.40
2017-11-30T14:09:24.959Z,56.47
2017-11-30T14:11:52.452Z,39.70
2017-11-30T14:14:19.936Z,43.87
2017-11-30T14:16:47.621Z,50.30
2017-11-30T14:19:15.121Z,43.43
2017-11-30T14:21:42.650Z,56.93
2017-11-30T14:24:10.191Z,48.03
2017-11-30T14:26:37.695Z,50.20
2017-11-30T14:29:05.188Z,53.30
2017-11-30T14:31:32.710Z,64.40
2017-11-30T14:34:00.195Z,59.30
2017-11-30T14:36:27.684Z,54.17
2017-11-30T14:38:55.207Z,50.53
2017-11-30T14:41:22.806Z,52.77
2017-11-30T14:43:50.299Z,50.17
2017-11-30T14:46:17.824Z,55.30
2017-11-30T14:48:45.400Z,52.57
2017-11-30T14:51:12.892Z,57.43
2017-11-30T14:53:40.426Z,52.73
2017-11-30T14:56:07.913Z,50.20
2017-11-30T14:58:35.399Z,53.67
2017-11-30T15:01:02.950Z,64.63
2017-11-30T15:03:30.454Z,60.80
2017-11-30T15:05:57.955Z,62.03
2017-11-30T15:08:25.565Z,54.87
2017-11-30T15:10:53.053Z,57.93
2017-11-30T15:13:20.575Z,53.70
2017-11-30T15:15:48.064Z,49.30
2017-11-30T15:18:15.557Z,58.97
2017-11-30T15:20:43.078Z,60.90
2017-11-30T15:23:10.565Z,64.07
2017-11-30T15:25:38.067Z,62.13
2017-11-30T15:28:05.663Z,66.30
2017-11-30T15:30:33.131Z,56.43
2017-11-30T15:33:00.641Z,55.90
2017-11-30T15:35:28.159Z,70.70
2017-11-30T15:37:55.727Z,63.73
2017-11-30T15:40:23.217Z,63.80
2017-11-30T15:42:51.082Z,62.27
2017-11-30T15:45:18.599Z,55.67
2017-11-30T15:47:46.093Z,57.13
2017-11-30T15:50:13.663Z,59.13
2017-11-30T15:52:41.145Z,57.43
2017-11-30T15:55:08.632Z,51.97
2017-11-30T15:57:36.163Z,44.60
2017-11-30T16:00:03.654Z,51.03
2017-11-30T16:02:31.138Z,49.33
2017-11-30T16:04:58.707Z,46.90
2017-11-30T16:07:26.375Z,52.60
2017-11-30T16:09:53.941Z,44.80
2017-11-30T16:12:21.474Z,45.23
2017-11-30T16:14:48.980Z,54.13
2017-11-30T16:17:16.463Z,53.00
2017-11-30T16:19:43.976Z,49.30
2017-11-30T16:22:11.490Z,53.40
2017-11-30T16:24:39.040Z,51.80
2017-11-30T16:27:06.544Z,51.93
2017-11-30T16:29:34.029Z,50.43
2017-11-30T16:32:01.562Z,40.80
2017-11-30T16:34:29.059Z,40.77
2017-11-30T16:36:56.566Z,44.00
2017-11-30T16:39:24.132Z,43.47
2017-11-30T16:41:51.631Z,44.87
2017-11-30T16:44:19.115Z,45.40
2017-11-30T16:46:46.677Z,46.83
2017-11-30T16:49:14.194Z,42.60
2017-11-30T16:51:41.728Z,49.80
2017-11-30T16:54:09.261Z,52.93
2017-11-30T16:56:36.764Z,38.53
2017-11-30T16:59:04.256Z,41.77
2017-11-30T17:01:31.811Z,79.17
2017-11-30T17:03:59.315Z,47.70
2017-11-30T17:06:26.802Z,49.30
2017-11-30T17:08:54.324Z,44.33
2017-11-30T17:11:21.824Z,48.47
2017-11-30T17:13:49.319Z,44.57
2017-11-30T17:16:16.836Z,55.50
2017-11-30T17:18:44.324Z,46.53
2017-11-30T17:21:11.831Z,58.30
2017-11-30T17:23:39.380Z,62.80
2017-11-30T17:26:06.884Z,53.40
2017-11-30T17:28:34.385Z,53.80
2017-11-30T17:31:01.919Z,45.97
2017-11-30T17:33:29.410Z,49.60
2017-11-30T17:35:56.915Z,50.13
2017-11-30T17:38:24.448Z,44.70
2017-11-30T17:40:51.965Z,53.30
2017-11-30T17:43:19.535Z,55.00
2017-11-30T17:45:47.031Z,47.03
2017-11-30T17:48:14.611Z,41.07
2017-11-30T17:50:42.151Z,46.40
2017-11-30T17:53:09.669Z,47.07
2017-11-30T17:55:37.229Z,48.73
2017-11-30T17:58:04.766Z,53.27
2017-11-30T18:00:32.260Z,54.50
2017-11-30T18:02:59.813Z,49.57
2017-11-30T18:05:27.463Z,65.53
2017-11-30T18:07:54.957Z,50.77
2017-11-30T18:10:22.450Z,53.63
2017-11-30T18:12:49.981Z,64.13
2017-11-30T18:15:17.476Z,60.20
2017-11-30T18:17:45.017Z,71.93
2017-11-30T18:20:12.517Z,54.43
2017-11-30T18:22:40.016Z,57.80
2017-11-30T18:25:07.545Z,62.73
2017-11-30T18:27:35.036Z,61.43
2017-11-30T18:30:02.563Z,57.67
2017-11-30T18:32:30.079Z,57.07
2017-11-30T18:34:57.620Z,58.70
2017-11-30T18:37:25.116Z,60.80
2017-11-30T18:39:52.608Z,52.03
2017-11-30T18:42:20.140Z,50.87
2017-11-30T18:44:47.647Z,53.17
2017-11-30T18:47:15.144Z,63.63
2017-11-30T18:49:42.677Z,55.20
2017-11-30T18:52:10.170Z,59.10
2017-11-30T18:54:37.732Z,54.97
2017-11-30T18:57:05.255Z,65.10
2017-11-30T18:59:32.865Z,56.10
2017-11-30T19:02:00.347Z,80.07
2017-11-30T19:04:27.884Z,76.67
2017-11-30T19:06:55.384Z,69.50
2017-11-30T19:09:22.892Z,61.87
2017-11-30T19:11:50.421Z,57.20
2017-11-30T19:14:17.997Z,75.83
2017-11-30T19:16:45.483Z,64.90
2017-11-30T19:19:13.031Z,63.17
2017-11-30T19:21:40.568Z,66.07
2017-11-30T19:24:08.083Z,71.13
2017-11-30T19:26:35.625Z,62.90
2017-11-30T19:29:03.159Z,74.00
2017-11-30T19:31:30.660Z,66.80
2017-11-30T19:33:58.169Z,57.07
2017-11-30T19:36:25.720Z,54.43
2017-11-30T19:38:53.221Z,58.40
2017-11-30T19:41:20.712Z,57.03
2017-11-30T19:43:48.228Z,60.67
2017-11-30T19:46:15.723Z,54.10
2017-11-30T19:48:43.210Z,60.83
2017-11-30T19:51:10.767Z,63.17
2017-11-30T19:53:38.251Z,61.30
2017-11-30T19:56:05.744Z,56.67
2017-11-30T19:58:33.290Z,57.13
2017-11-30T20:01:01.826Z,50.53
2017-11-30T20:03:29.327Z,66.03
2017-11-30T20:05:56.867Z,56.00
2017-11-30T20:08:24.425Z,60.60
2017-11-30T20:10:51.920Z,50.77
2017-11-30T20:13:19.462Z,57.00
2017-11-30T20:15:46.958Z,64.80
2017-11-30T20:18:14.439Z,59.60
2017-11-30T20:20:42.012Z,70.23
2017-11-30T20:23:09.509Z,63.90
2017-11-30T20:25:37.020Z,57.87
2017-11-30T20:28:04.567Z,56.80
2017-11-30T20:30:32.056Z,65.53
2017-11-30T20:32:59.556Z,54.40
2017-11-30T20:35:27.083Z,58.63
2017-11-30T20:37:54.581Z,60.43
2017-11-30T20:40:22.090Z,56.80
2017-11-30T20:42:49.612Z,59.97
2017-11-30T20:45:17.104Z,66.23
2017-11-30T20:47:44.598Z,63.47
2017-11-30T20:50:12.216Z,56.80
2017-11-30T20:52:39.765Z,55.43
2017-11-30T20:55:07.257Z,64.00
2017-11-30T20:57:34.876Z,56.80
2017-11-30T21:00:02.392Z,60.73
2017-11-30T21:02:29.941Z,51.87
2017-11-30T21:04:57.475Z,58.40
2017-11-30T21:07:24.974Z,48.20
2017-11-30T21:09:52.592Z,53.87
2017-11-30T21:12:20.084Z,48.90
2017-11-30T21:14:47.585Z,50.40
2017-11-30T21:17:15.128Z,28.77
2017-11-30T21:19:42.625Z,46.10
2017-11-30T21:22:10.120Z,52.43
2017-11-30T21:24:37.670Z,46.13
2017-11-30T21:27:05.160Z,60.67
2017-11-30T21:29:32.642Z,44.67
2017-11-30T21:32:00.199Z,46.27
2017-11-30T21:34:27.755Z,67.53
2017-11-30T21:36:55.253Z,59.83
2017-11-30T21:39:22.979Z,42.37
2017-11-30T21:41:50.471Z,42.83
2017-11-30T21:44:18.073Z,45.50
2017-11-30T21:46:45.652Z,44.70
2017-11-30T21:49:13.147Z,46.50
2017-11-30T21:51:40.632Z,50.37
2017-11-30T21:54:08.321Z,49.80
2017-11-30T21:56:35.905Z,49.67
2017-11-30T21:59:03.413Z,41.17
2017-11-30T22:01:30.952Z,40.07
2017-11-30T22:03:58.454Z,38.93
2017-11-30T22:06:25.961Z,41.77
2017-11-30T22:08:53.585Z,44.67
2017-11-30T22:11:21.084Z,47.10
2017-11-30T22:13:48.580Z,52.43
2017-11-30T22:16:16.125Z,52.70
2017-11-30T22:18:43.643Z,44.50
2017-11-30T22:21:11.152Z,46.10
2017-11-30T22:23:38.675Z,39.70
2017-11-30T22:26:06.230Z,40.37
2017-11-30T22:28:33.728Z,45.77
2017-11-30T22:31:01.379Z,39.33
2017-11-30T22:33:28.911Z,38.10
2017-11-30T22:35:56.407Z,44.60
2017-11-30T22:38:23.902Z,39.70
2017-11-30T22:40:51.439Z,31.83
2017-11-30T22:43:18.936Z,35.43
2017-11-30T22:45:46.435Z,37.33
2017-11-30T22:48:14.033Z,37.80
2017-11-30T22:50:41.536Z,47.23
2017-11-30T22:53:09.030Z,35.97
2017-11-30T22:55:36.558Z,41.00
2017-11-30T22:58:04.160Z,38.33
2017-11-30T23:00:41.708Z,40.73
2017-11-30T23:03:09.330Z,31.60
2017-11-30T23:05:36.847Z,46.07
2017-11-30T23:08:04.406Z,35.97
2017-11-30T23:10:31.908Z,41.53
2017-11-30T23:12:59.421Z,33.87
2017-11-30T23:15:26.967Z,36.97
2017-11-30T23:17:54.464Z,47.73
2017-11-30T23:20:21.996Z,37.70
2017-11-30T23:22:49.552Z,36.10
2017-11-30T23:25:17.044Z,42.30
2017-11-30T23:27:44.536Z,36.00
2017-11-30T23:30:12.059Z,39.47
2017-11-30T23:32:39.614Z,37.10
2017-11-30T23:35:07.171Z,36.47
2017-11-30T23:37:34.681Z,33.23
2017-11-30T23:40:02.212Z,32.47
2017-11-30T23:42:29.752Z,39.40
2017-11-30T23:44:57.255Z,35.67
2017-11-30T23:47:25.060Z,33.73
2017-11-30T23:49:52.632Z,34.00
2017-11-30T23:52:20.131Z,38.00
2017-11-30T23:54:47.663Z,39.10
2017-11-30T23:57:15.159Z,25.07
2017-11-30T23:59:42.654Z,33.50
